sensor_id;sensor_type;location;lat;lon;timestamp;temperature;humidity
14099;DHT22;7126;48.458;7.930;2022-11-15T00:02:07;10.20;99.90
14099;DHT22;7126;48.458;7.930;2022-11-15T00:04:33;10.30;99.90
14099;DHT22;7126;48.458;7.930;2022-11-15T00:06:59;10.30;99.90
14099;DHT22;7126;48.458;7.930;2022-11-15T00:09:24;10.40;99.90
14099;DHT22;7126;48.458;7.930;2022-11-15T00:11:51;10.40;99.90
14099;DHT22;7126;48.458;7.930;2022-11-15T00:14:16;10.50;99.90
14099;DHT22;7126;48.458;7.930;2022-11-15T00:16:42;10.50;99.90
14099;DHT22;7126;48.458;7.930;2022-11-15T00:19:08;10.50;99.90
14099;DHT22;7126;48.458;7.930;2022-11-15T00:21:34;10.50;99.90
14099;DHT22;7126;48.458;7.930;2022-11-15T00:23:59;10.50;99.90
14099;DHT22;7126;48.458;7.930;2022-11-15T00:26:25;10.50;99.90
14099;DHT22;7126;48.458;7.930;2022-11-15T00:28:52;10.50;99.90
14099;DHT22;7126;48.458;7.930;2022-11-15T00:31:18;10.50;99.90
14099;DHT22;7126;48.458;7.930;2022-11-15T00:33:44;10.50;99.90
14099;DHT22;7126;48.458;7.930;2022-11-15T00:36:10;10.50;99.90
14099;DHT22;7126;48.458;7.930;2022-11-15T00:38:38;10.50;99.90
14099;DHT22;7126;48.458;7.930;2022-11-15T00:41:05;10.50;99.90
14099;DHT22;7126;48.458;7.930;2022-11-15T00:43:31;10.60;99.90
14099;DHT22;7126;48.458;7.930;2022-11-15T00:45:56;10.50;99.90
14099;DHT22;7126;48.458;7.930;2022-11-15T00:48:22;10.50;99.90
14099;DHT22;7126;48.458;7.930;2022-11-15T00:50:49;10.50;99.90
14099;DHT22;7126;48.458;7.930;2022-11-15T00:53:15;10.50;99.90
14099;DHT22;7126;48.458;7.930;2022-11-15T00:55:41;10.50;99.90
14099;DHT22;7126;48.458;7.930;2022-11-15T00:58:06;10.50;99.90
14099;DHT22;7126;48.458;7.930;2022-11-15T01:00:32;10.50;99.90
14099;DHT22;7126;48.458;7.930;2022-11-15T01:02:57;10.50;99.90
14099;DHT22;7126;48.458;7.930;2022-11-15T01:05:23;10.50;99.90
14099;DHT22;7126;48.458;7.930;2022-11-15T01:07:52;10.60;99.90
14099;DHT22;7126;48.458;7.930;2022-11-15T01:10:18;10.60;99.90
14099;DHT22;7126;48.458;7.930;2022-11-15T01:12:44;10.60;99.90
14099;DHT22;7126;48.458;7.930;2022-11-15T01:15:09;10.70;99.90
14099;DHT22;7126;48.458;7.930;2022-11-15T01:17:35;10.70;99.90
14099;DHT22;7126;48.458;7.930;2022-11-15T01:20:01;10.60;99.90
14099;DHT22;7126;48.458;7.930;2022-11-15T01:22:26;10.60;99.90
14099;DHT22;7126;48.458;7.930;2022-11-15T01:24:52;10.60;99.90
14099;DHT22;7126;48.458;7.930;2022-11-15T01:27:18;10.60;99.90
14099;DHT22;7126;48.458;7.930;2022-11-15T01:29:43;10.70;99.90
14099;DHT22;7126;48.458;7.930;2022-11-15T01:32:09;10.60;99.90
14099;DHT22;7126;48.458;7.930;2022-11-15T01:34:35;10.70;99.90
14099;DHT22;7126;48.458;7.930;2022-11-15T01:37:00;10.70;99.90
14099;DHT22;7126;48.458;7.930;2022-11-15T01:39:26;10.80;99.90
14099;DHT22;7126;48.458;7.930;2022-11-15T01:41:52;10.80;99.90
14099;DHT22;7126;48.458;7.930;2022-11-15T01:47:23;10.80;99.90
14099;DHT22;7126;48.458;7.930;2022-11-15T01:49:56;10.70;99.90
14099;DHT22;7126;48.458;7.930;2022-11-15T01:52:25;10.60;99.90
14099;DHT22;7126;48.458;7.930;2022-11-15T01:55:22;10.60;99.90
14099;DHT22;7126;48.458;7.930;2022-11-15T01:57:51;10.60;99.90
14099;DHT22;7126;48.458;7.930;2022-11-15T02:00:18;10.50;99.90
14099;DHT22;7126;48.458;7.930;2022-11-15T02:02:44;10.60;99.90
14099;DHT22;7126;48.458;7.930;2022-11-15T02:05:10;10.50;99.90
14099;DHT22;7126;48.458;7.930;2022-11-15T02:07:36;10.50;99.90
14099;DHT22;7126;48.458;7.930;2022-11-15T02:10:07;10.50;99.90
14099;DHT22;7126;48.458;7.930;2022-11-15T02:12:33;10.50;99.90
14099;DHT22;7126;48.458;7.930;2022-11-15T02:14:59;10.50;99.90
14099;DHT22;7126;48.458;7.930;2022-11-15T02:18:04;10.50;99.90
14099;DHT22;7126;48.458;7.930;2022-11-15T02:24:21;10.50;99.90
14099;DHT22;7126;48.458;7.930;2022-11-15T02:26:43;10.60;99.90
14099;DHT22;7126;48.458;7.930;2022-11-15T02:29:33;10.60;99.90
14099;DHT22;7126;48.458;7.930;2022-11-15T02:34:56;10.60;99.90
14099;DHT22;7126;48.458;7.930;2022-11-15T02:37:42;10.60;99.90
14099;DHT22;7126;48.458;7.930;2022-11-15T02:42:57;10.70;99.90
14099;DHT22;7126;48.458;7.930;2022-11-15T02:45:49;10.70;99.90
14099;DHT22;7126;48.458;7.930;2022-11-15T02:48:17;10.70;99.90
14099;DHT22;7126;48.458;7.930;2022-11-15T02:50:45;10.70;99.90
14099;DHT22;7126;48.458;7.930;2022-11-15T02:53:11;10.70;99.90
14099;DHT22;7126;48.458;7.930;2022-11-15T02:55:38;10.80;99.90
14099;DHT22;7126;48.458;7.930;2022-11-15T02:58:19;10.80;99.90
14099;DHT22;7126;48.458;7.930;2022-11-15T03:03:56;10.80;99.90
14099;DHT22;7126;48.458;7.930;2022-11-15T03:09:10;10.80;99.90
14099;DHT22;7126;48.458;7.930;2022-11-15T03:11:42;10.80;99.90
14099;DHT22;7126;48.458;7.930;2022-11-15T03:14:32;10.80;99.90
14099;DHT22;7126;48.458;7.930;2022-11-15T03:17:18;10.70;99.90
14099;DHT22;7126;48.458;7.930;2022-11-15T03:19:49;10.80;99.90
14099;DHT22;7126;48.458;7.930;2022-11-15T03:22:17;10.80;99.90
14099;DHT22;7126;48.458;7.930;2022-11-15T03:24:46;10.70;99.90
14099;DHT22;7126;48.458;7.930;2022-11-15T03:27:15;10.80;99.90
14099;DHT22;7126;48.458;7.930;2022-11-15T03:29:47;10.80;99.90
14099;DHT22;7126;48.458;7.930;2022-11-15T03:32:23;10.90;99.90
14099;DHT22;7126;48.458;7.930;2022-11-15T03:34:53;10.90;99.90
14099;DHT22;7126;48.458;7.930;2022-11-15T03:37:24;10.90;99.90
14099;DHT22;7126;48.458;7.930;2022-11-15T03:39:51;11.00;99.90
14099;DHT22;7126;48.458;7.930;2022-11-15T03:42:21;11.00;99.90
14099;DHT22;7126;48.458;7.930;2022-11-15T03:49:51;11.00;99.90
14099;DHT22;7126;48.458;7.930;2022-11-15T03:52:19;10.90;99.90
14099;DHT22;7126;48.458;7.930;2022-11-15T03:54:49;10.90;99.90
14099;DHT22;7126;48.458;7.930;2022-11-15T03:57:16;10.90;99.90
14099;DHT22;7126;48.458;7.930;2022-11-15T03:59:41;10.90;99.90
14099;DHT22;7126;48.458;7.930;2022-11-15T04:02:07;10.90;99.90
14099;DHT22;7126;48.458;7.930;2022-11-15T04:04:32;10.90;99.90
14099;DHT22;7126;48.458;7.930;2022-11-15T04:06:58;10.90;99.90
14099;DHT22;7126;48.458;7.930;2022-11-15T04:09:23;10.90;99.90
14099;DHT22;7126;48.458;7.930;2022-11-15T04:11:49;10.90;99.90
14099;DHT22;7126;48.458;7.930;2022-11-15T04:14:14;10.90;99.90
14099;DHT22;7126;48.458;7.930;2022-11-15T04:16:40;10.80;99.90
14099;DHT22;7126;48.458;7.930;2022-11-15T04:19:05;10.80;99.90
14099;DHT22;7126;48.458;7.930;2022-11-15T04:21:49;10.80;99.90
14099;DHT22;7126;48.458;7.930;2022-11-15T04:24:33;10.80;99.90
14099;DHT22;7126;48.458;7.930;2022-11-15T04:26:59;10.80;99.90
14099;DHT22;7126;48.458;7.930;2022-11-15T04:29:25;10.80;99.90
14099;DHT22;7126;48.458;7.930;2022-11-15T04:32:03;10.90;99.90
14099;DHT22;7126;48.458;7.930;2022-11-15T04:34:29;10.90;99.90
14099;DHT22;7126;48.458;7.930;2022-11-15T04:36:55;10.90;99.90
14099;DHT22;7126;48.458;7.930;2022-11-15T04:39:42;10.90;99.90
14099;DHT22;7126;48.458;7.930;2022-11-15T04:42:09;10.90;99.90
14099;DHT22;7126;48.458;7.930;2022-11-15T04:44:34;10.90;99.90
14099;DHT22;7126;48.458;7.930;2022-11-15T04:47:01;10.90;99.90
14099;DHT22;7126;48.458;7.930;2022-11-15T04:49:27;10.90;99.90
14099;DHT22;7126;48.458;7.930;2022-11-15T04:51:52;11.00;99.90
14099;DHT22;7126;48.458;7.930;2022-11-15T04:54:18;11.10;99.90
14099;DHT22;7126;48.458;7.930;2022-11-15T04:56:44;11.10;99.90
14099;DHT22;7126;48.458;7.930;2022-11-15T04:59:09;11.20;99.90
14099;DHT22;7126;48.458;7.930;2022-11-15T05:01:35;11.20;99.90
14099;DHT22;7126;48.458;7.930;2022-11-15T05:04:00;11.30;99.90
14099;DHT22;7126;48.458;7.930;2022-11-15T05:06:45;11.30;99.90
14099;DHT22;7126;48.458;7.930;2022-11-15T05:09:11;11.30;99.90
14099;DHT22;7126;48.458;7.930;2022-11-15T05:11:38;11.30;99.90
14099;DHT22;7126;48.458;7.930;2022-11-15T05:14:04;11.30;99.90
14099;DHT22;7126;48.458;7.930;2022-11-15T05:16:29;11.30;99.90
14099;DHT22;7126;48.458;7.930;2022-11-15T05:18:55;11.30;99.90
14099;DHT22;7126;48.458;7.930;2022-11-15T05:21:21;11.40;99.90
14099;DHT22;7126;48.458;7.930;2022-11-15T05:23:46;11.30;99.90
14099;DHT22;7126;48.458;7.930;2022-11-15T05:26:13;11.30;99.90
14099;DHT22;7126;48.458;7.930;2022-11-15T05:28:40;11.40;99.90
14099;DHT22;7126;48.458;7.930;2022-11-15T05:31:07;11.40;99.90
14099;DHT22;7126;48.458;7.930;2022-11-15T05:33:35;11.30;99.90
14099;DHT22;7126;48.458;7.930;2022-11-15T05:38:46;11.20;99.90
14099;DHT22;7126;48.458;7.930;2022-11-15T05:41:13;11.10;99.90
14099;DHT22;7126;48.458;7.930;2022-11-15T05:43:39;11.10;99.90
14099;DHT22;7126;48.458;7.930;2022-11-15T05:46:06;11.10;99.90
14099;DHT22;7126;48.458;7.930;2022-11-15T05:48:34;11.10;99.90
14099;DHT22;7126;48.458;7.930;2022-11-15T05:51:02;11.00;99.90
14099;DHT22;7126;48.458;7.930;2022-11-15T05:53:30;11.00;99.90
14099;DHT22;7126;48.458;7.930;2022-11-15T05:55:55;11.00;99.90
14099;DHT22;7126;48.458;7.930;2022-11-15T05:58:21;11.00;99.90
14099;DHT22;7126;48.458;7.930;2022-11-15T06:00:47;11.00;99.90
14099;DHT22;7126;48.458;7.930;2022-11-15T06:03:13;11.00;99.90
14099;DHT22;7126;48.458;7.930;2022-11-15T06:05:39;11.00;99.90
14099;DHT22;7126;48.458;7.930;2022-11-15T06:08:05;11.00;99.90
14099;DHT22;7126;48.458;7.930;2022-11-15T06:10:32;11.00;99.90
14099;DHT22;7126;48.458;7.930;2022-11-15T06:12:58;11.00;99.90
14099;DHT22;7126;48.458;7.930;2022-11-15T06:15:24;11.00;99.90
14099;DHT22;7126;48.458;7.930;2022-11-15T06:17:50;11.00;99.90
14099;DHT22;7126;48.458;7.930;2022-11-15T06:20:15;11.00;99.90
14099;DHT22;7126;48.458;7.930;2022-11-15T06:22:41;11.00;99.90
14099;DHT22;7126;48.458;7.930;2022-11-15T06:25:07;11.00;99.90
14099;DHT22;7126;48.458;7.930;2022-11-15T06:27:32;11.00;99.90
14099;DHT22;7126;48.458;7.930;2022-11-15T06:29:58;10.90;99.90
14099;DHT22;7126;48.458;7.930;2022-11-15T06:32:23;10.90;99.90
14099;DHT22;7126;48.458;7.930;2022-11-15T06:34:49;10.90;99.90
14099;DHT22;7126;48.458;7.930;2022-11-15T06:37:15;10.80;99.90
14099;DHT22;7126;48.458;7.930;2022-11-15T06:39:40;10.80;99.90
14099;DHT22;7126;48.458;7.930;2022-11-15T06:42:08;10.70;99.90
14099;DHT22;7126;48.458;7.930;2022-11-15T06:44:34;10.70;99.90
14099;DHT22;7126;48.458;7.930;2022-11-15T06:46:59;10.70;99.90
14099;DHT22;7126;48.458;7.930;2022-11-15T06:49:25;10.70;99.90
14099;DHT22;7126;48.458;7.930;2022-11-15T06:51:50;10.70;99.90
14099;DHT22;7126;48.458;7.930;2022-11-15T06:54:16;10.70;99.90
14099;DHT22;7126;48.458;7.930;2022-11-15T06:56:41;10.70;99.90
14099;DHT22;7126;48.458;7.930;2022-11-15T06:59:07;10.70;99.90
14099;DHT22;7126;48.458;7.930;2022-11-15T07:01:32;10.60;99.90
14099;DHT22;7126;48.458;7.930;2022-11-15T07:03:58;10.70;99.90
14099;DHT22;7126;48.458;7.930;2022-11-15T07:06:24;10.70;99.90
14099;DHT22;7126;48.458;7.930;2022-11-15T07:08:49;10.70;99.90
14099;DHT22;7126;48.458;7.930;2022-11-15T07:11:15;10.70;99.90
14099;DHT22;7126;48.458;7.930;2022-11-15T07:13:40;10.70;99.90
14099;DHT22;7126;48.458;7.930;2022-11-15T07:16:08;10.70;99.90
14099;DHT22;7126;48.458;7.930;2022-11-15T07:18:35;10.70;99.90
14099;DHT22;7126;48.458;7.930;2022-11-15T07:21:06;10.70;99.90
14099;DHT22;7126;48.458;7.930;2022-11-15T07:23:32;10.70;99.90
14099;DHT22;7126;48.458;7.930;2022-11-15T07:25:58;10.80;99.90
14099;DHT22;7126;48.458;7.930;2022-11-15T07:28:25;10.80;99.90
14099;DHT22;7126;48.458;7.930;2022-11-15T07:30:51;10.80;99.90
14099;DHT22;7126;48.458;7.930;2022-11-15T07:33:16;10.90;99.90
14099;DHT22;7126;48.458;7.930;2022-11-15T07:35:42;10.90;99.90
14099;DHT22;7126;48.458;7.930;2022-11-15T07:38:08;10.90;99.90
14099;DHT22;7126;48.458;7.930;2022-11-15T07:40:34;11.00;99.90
14099;DHT22;7126;48.458;7.930;2022-11-15T07:43:01;11.00;99.90
14099;DHT22;7126;48.458;7.930;2022-11-15T07:45:27;11.00;99.90
14099;DHT22;7126;48.458;7.930;2022-11-15T07:47:53;10.90;99.90
14099;DHT22;7126;48.458;7.930;2022-11-15T07:50:19;10.90;99.90
14099;DHT22;7126;48.458;7.930;2022-11-15T07:52:45;10.90;99.90
14099;DHT22;7126;48.458;7.930;2022-11-15T07:55:11;10.90;99.90
14099;DHT22;7126;48.458;7.930;2022-11-15T07:57:37;10.90;99.90
14099;DHT22;7126;48.458;7.930;2022-11-15T08:00:05;10.90;99.90
14099;DHT22;7126;48.458;7.930;2022-11-15T08:02:31;10.90;99.90
14099;DHT22;7126;48.458;7.930;2022-11-15T08:04:56;10.90;99.90
14099;DHT22;7126;48.458;7.930;2022-11-15T08:07:22;10.90;99.90
14099;DHT22;7126;48.458;7.930;2022-11-15T08:09:48;10.80;99.90
14099;DHT22;7126;48.458;7.930;2022-11-15T08:12:14;10.80;99.90
14099;DHT22;7126;48.458;7.930;2022-11-15T08:14:40;10.80;99.90
14099;DHT22;7126;48.458;7.930;2022-11-15T08:17:05;10.80;99.90
14099;DHT22;7126;48.458;7.930;2022-11-15T08:19:31;10.80;99.90
14099;DHT22;7126;48.458;7.930;2022-11-15T08:21:56;10.80;99.90
14099;DHT22;7126;48.458;7.930;2022-11-15T08:24:22;10.80;99.90
14099;DHT22;7126;48.458;7.930;2022-11-15T08:26:47;10.80;99.90
14099;DHT22;7126;48.458;7.930;2022-11-15T08:29:13;10.80;99.90
14099;DHT22;7126;48.458;7.930;2022-11-15T08:31:38;10.80;99.90
14099;DHT22;7126;48.458;7.930;2022-11-15T08:34:05;10.90;99.90
14099;DHT22;7126;48.458;7.930;2022-11-15T08:36:31;10.90;99.90
14099;DHT22;7126;48.458;7.930;2022-11-15T08:38:57;10.90;99.90
14099;DHT22;7126;48.458;7.930;2022-11-15T08:41:30;11.00;99.90
14099;DHT22;7126;48.458;7.930;2022-11-15T08:43:56;11.00;99.90
14099;DHT22;7126;48.458;7.930;2022-11-15T08:46:22;11.00;99.90
14099;DHT22;7126;48.458;7.930;2022-11-15T08:48:47;11.10;99.90
14099;DHT22;7126;48.458;7.930;2022-11-15T08:51:13;11.10;99.90
14099;DHT22;7126;48.458;7.930;2022-11-15T08:53:39;11.10;99.90
14099;DHT22;7126;48.458;7.930;2022-11-15T08:56:11;11.10;99.90
14099;DHT22;7126;48.458;7.930;2022-11-15T08:58:37;11.20;99.90
14099;DHT22;7126;48.458;7.930;2022-11-15T09:01:03;11.20;99.90
14099;DHT22;7126;48.458;7.930;2022-11-15T09:03:29;11.20;99.90
14099;DHT22;7126;48.458;7.930;2022-11-15T09:05:56;11.10;99.90
14099;DHT22;7126;48.458;7.930;2022-11-15T09:08:22;11.20;99.90
14099;DHT22;7126;48.458;7.930;2022-11-15T09:10:48;11.20;99.90
14099;DHT22;7126;48.458;7.930;2022-11-15T09:13:13;11.10;99.90
14099;DHT22;7126;48.458;7.930;2022-11-15T09:15:39;11.20;99.90
14099;DHT22;7126;48.458;7.930;2022-11-15T09:18:05;11.10;99.90
14099;DHT22;7126;48.458;7.930;2022-11-15T09:20:30;11.20;99.90
14099;DHT22;7126;48.458;7.930;2022-11-15T09:23:01;11.20;99.90
14099;DHT22;7126;48.458;7.930;2022-11-15T09:25:28;11.20;99.90
14099;DHT22;7126;48.458;7.930;2022-11-15T09:27:53;11.20;99.90
14099;DHT22;7126;48.458;7.930;2022-11-15T09:30:19;11.20;99.90
14099;DHT22;7126;48.458;7.930;2022-11-15T09:32:44;11.20;99.90
14099;DHT22;7126;48.458;7.930;2022-11-15T09:35:10;11.30;99.90
14099;DHT22;7126;48.458;7.930;2022-11-15T09:37:35;11.30;99.90
14099;DHT22;7126;48.458;7.930;2022-11-15T09:40:02;11.30;99.90
14099;DHT22;7126;48.458;7.930;2022-11-15T09:50:46;11.60;99.90
14099;DHT22;7126;48.458;7.930;2022-11-15T09:53:20;11.60;99.90
14099;DHT22;7126;48.458;7.930;2022-11-15T09:55:58;11.60;99.90
14099;DHT22;7126;48.458;7.930;2022-11-15T10:00:55;11.60;99.90
14099;DHT22;7126;48.458;7.930;2022-11-15T10:03:33;11.70;99.90
14099;DHT22;7126;48.458;7.930;2022-11-15T10:06:03;11.70;99.90
14099;DHT22;7126;48.458;7.930;2022-11-15T10:11:26;11.80;99.90
14099;DHT22;7126;48.458;7.930;2022-11-15T10:13:56;11.80;99.90
14099;DHT22;7126;48.458;7.930;2022-11-15T10:22:46;12.00;99.90
14099;DHT22;7126;48.458;7.930;2022-11-15T10:27:57;12.10;99.90
14099;DHT22;7126;48.458;7.930;2022-11-15T10:30:33;12.10;99.90
14099;DHT22;7126;48.458;7.930;2022-11-15T10:33:10;12.10;99.90
14099;DHT22;7126;48.458;7.930;2022-11-15T10:35:37;12.20;99.90
14099;DHT22;7126;48.458;7.930;2022-11-15T10:38:07;12.10;99.90
14099;DHT22;7126;48.458;7.930;2022-11-15T10:40:34;12.10;99.90
14099;DHT22;7126;48.458;7.930;2022-11-15T10:45:34;12.20;99.90
14099;DHT22;7126;48.458;7.930;2022-11-15T10:50:47;12.30;99.90
14099;DHT22;7126;48.458;7.930;2022-11-15T10:53:31;12.30;99.90
14099;DHT22;7126;48.458;7.930;2022-11-15T10:56:06;12.40;99.90
14099;DHT22;7126;48.458;7.930;2022-11-15T10:58:43;12.40;99.90
14099;DHT22;7126;48.458;7.930;2022-11-15T11:01:12;12.50;99.90
14099;DHT22;7126;48.458;7.930;2022-11-15T11:03:39;12.50;99.90
14099;DHT22;7126;48.458;7.930;2022-11-15T11:06:08;12.50;99.90
14099;DHT22;7126;48.458;7.930;2022-11-15T11:08:34;12.50;99.90
14099;DHT22;7126;48.458;7.930;2022-11-15T11:11:01;12.50;99.90
14099;DHT22;7126;48.458;7.930;2022-11-15T11:13:35;12.60;99.90
14099;DHT22;7126;48.458;7.930;2022-11-15T11:16:23;12.60;99.90
14099;DHT22;7126;48.458;7.930;2022-11-15T11:24:16;12.70;99.90
14099;DHT22;7126;48.458;7.930;2022-11-15T11:26:58;12.70;99.90
14099;DHT22;7126;48.458;7.930;2022-11-15T11:29:56;12.80;99.90
14099;DHT22;7126;48.458;7.930;2022-11-15T11:41:55;12.90;99.90
14099;DHT22;7126;48.458;7.930;2022-11-15T11:47:11;13.00;99.90
14099;DHT22;7126;48.458;7.930;2022-11-15T11:49:52;13.00;99.90
14099;DHT22;7126;48.458;7.930;2022-11-15T11:52:44;13.10;99.90
14099;DHT22;7126;48.458;7.930;2022-11-15T11:55:23;13.10;99.90
14099;DHT22;7126;48.458;7.930;2022-11-15T11:57:56;13.10;99.90
14099;DHT22;7126;48.458;7.930;2022-11-15T12:00:26;13.20;99.90
14099;DHT22;7126;48.458;7.930;2022-11-15T12:05:43;13.10;99.90
14099;DHT22;7126;48.458;7.930;2022-11-15T12:11:22;13.20;99.90
14099;DHT22;7126;48.458;7.930;2022-11-15T12:13:53;13.30;99.90
14099;DHT22;7126;48.458;7.930;2022-11-15T12:16:27;13.30;99.90
14099;DHT22;7126;48.458;7.930;2022-11-15T12:18:54;13.40;99.90
14099;DHT22;7126;48.458;7.930;2022-11-15T12:21:44;13.50;99.90
14099;DHT22;7126;48.458;7.930;2022-11-15T12:24:23;13.70;99.90
14099;DHT22;7126;48.458;7.930;2022-11-15T12:26:58;13.90;99.90
14099;DHT22;7126;48.458;7.930;2022-11-15T12:29:37;13.90;99.90
14099;DHT22;7126;48.458;7.930;2022-11-15T12:32:03;13.90;99.90
14099;DHT22;7126;48.458;7.930;2022-11-15T12:34:38;13.90;99.90
14099;DHT22;7126;48.458;7.930;2022-11-15T12:37:44;13.90;99.90
14099;DHT22;7126;48.458;7.930;2022-11-15T12:45:45;14.00;99.90
14099;DHT22;7126;48.458;7.930;2022-11-15T13:04:21;14.00;99.90
14099;DHT22;7126;48.458;7.930;2022-11-15T13:06:48;14.00;99.90
14099;DHT22;7126;48.458;7.930;2022-11-15T13:17:25;14.00;99.90
14099;DHT22;7126;48.458;7.930;2022-11-15T13:35:52;13.90;99.90
14099;DHT22;7126;48.458;7.930;2022-11-15T13:38:30;13.90;99.90
14099;DHT22;7126;48.458;7.930;2022-11-15T13:40:58;13.90;99.90
14099;DHT22;7126;48.458;7.930;2022-11-15T13:43:34;13.90;99.90
14099;DHT22;7126;48.458;7.930;2022-11-15T13:48:39;13.90;99.90
14099;DHT22;7126;48.458;7.930;2022-11-15T13:51:13;13.90;99.90
14099;DHT22;7126;48.458;7.930;2022-11-15T13:53:46;13.90;99.90
14099;DHT22;7126;48.458;7.930;2022-11-15T13:56:14;13.90;99.90
14099;DHT22;7126;48.458;7.930;2022-11-15T13:58:40;13.90;99.90
14099;DHT22;7126;48.458;7.930;2022-11-15T14:01:11;13.90;99.90
14099;DHT22;7126;48.458;7.930;2022-11-15T14:03:47;13.80;99.90
14099;DHT22;7126;48.458;7.930;2022-11-15T14:06:16;13.80;99.90
14099;DHT22;7126;48.458;7.930;2022-11-15T14:11:32;13.60;99.90
14099;DHT22;7126;48.458;7.930;2022-11-15T14:14:11;13.60;99.90
14099;DHT22;7126;48.458;7.930;2022-11-15T14:16:52;13.60;99.90
14099;DHT22;7126;48.458;7.930;2022-11-15T14:24:37;13.60;99.90
14099;DHT22;7126;48.458;7.930;2022-11-15T14:27:36;13.50;99.90
14099;DHT22;7126;48.458;7.930;2022-11-15T14:30:02;13.50;99.90
14099;DHT22;7126;48.458;7.930;2022-11-15T14:32:30;13.50;99.90
14099;DHT22;7126;48.458;7.930;2022-11-15T14:35:02;13.50;99.90
14099;DHT22;7126;48.458;7.930;2022-11-15T14:37:33;13.50;99.90
14099;DHT22;7126;48.458;7.930;2022-11-15T14:40:00;13.50;99.90
14099;DHT22;7126;48.458;7.930;2022-11-15T14:42:26;13.40;99.90
14099;DHT22;7126;48.458;7.930;2022-11-15T14:44:52;13.50;99.90
14099;DHT22;7126;48.458;7.930;2022-11-15T14:47:18;13.50;99.90
14099;DHT22;7126;48.458;7.930;2022-11-15T14:49:44;13.50;99.90
14099;DHT22;7126;48.458;7.930;2022-11-15T14:54:44;13.50;99.90
14099;DHT22;7126;48.458;7.930;2022-11-15T14:57:10;13.50;99.90
14099;DHT22;7126;48.458;7.930;2022-11-15T14:59:35;13.50;99.90
14099;DHT22;7126;48.458;7.930;2022-11-15T15:02:01;13.40;99.90
14099;DHT22;7126;48.458;7.930;2022-11-15T15:04:27;13.40;99.90
14099;DHT22;7126;48.458;7.930;2022-11-15T15:06:52;13.40;99.90
14099;DHT22;7126;48.458;7.930;2022-11-15T15:09:18;13.40;99.90
14099;DHT22;7126;48.458;7.930;2022-11-15T15:11:43;13.40;99.90
14099;DHT22;7126;48.458;7.930;2022-11-15T15:14:10;13.50;99.90
14099;DHT22;7126;48.458;7.930;2022-11-15T15:16:35;13.50;99.90
14099;DHT22;7126;48.458;7.930;2022-11-15T15:19:01;13.50;99.90
14099;DHT22;7126;48.458;7.930;2022-11-15T15:21:27;13.50;99.90
14099;DHT22;7126;48.458;7.930;2022-11-15T15:23:54;13.50;99.90
14099;DHT22;7126;48.458;7.930;2022-11-15T15:26:20;13.50;99.90
14099;DHT22;7126;48.458;7.930;2022-11-15T15:28:46;13.50;99.90
14099;DHT22;7126;48.458;7.930;2022-11-15T15:31:14;13.50;99.90
14099;DHT22;7126;48.458;7.930;2022-11-15T15:33:39;13.50;99.90
14099;DHT22;7126;48.458;7.930;2022-11-15T15:36:11;13.40;99.90
14099;DHT22;7126;48.458;7.930;2022-11-15T15:38:37;13.40;99.90
14099;DHT22;7126;48.458;7.930;2022-11-15T15:41:10;13.40;99.90
14099;DHT22;7126;48.458;7.930;2022-11-15T15:43:36;13.40;99.90
14099;DHT22;7126;48.458;7.930;2022-11-15T15:46:01;13.40;99.90
14099;DHT22;7126;48.458;7.930;2022-11-15T15:48:27;13.30;99.90
14099;DHT22;7126;48.458;7.930;2022-11-15T15:50:52;13.30;99.90
14099;DHT22;7126;48.458;7.930;2022-11-15T15:53:18;13.30;99.90
14099;DHT22;7126;48.458;7.930;2022-11-15T15:55:44;13.20;99.90
14099;DHT22;7126;48.458;7.930;2022-11-15T15:58:09;13.20;99.90
14099;DHT22;7126;48.458;7.930;2022-11-15T16:00:35;13.10;99.90
14099;DHT22;7126;48.458;7.930;2022-11-15T16:03:01;13.10;99.90
14099;DHT22;7126;48.458;7.930;2022-11-15T16:05:26;13.00;99.90
14099;DHT22;7126;48.458;7.930;2022-11-15T16:07:52;13.10;99.90
14099;DHT22;7126;48.458;7.930;2022-11-15T16:10:32;13.00;99.90
14099;DHT22;7126;48.458;7.930;2022-11-15T16:12:59;13.10;99.90
14099;DHT22;7126;48.458;7.930;2022-11-15T16:15:27;13.00;99.90
14099;DHT22;7126;48.458;7.930;2022-11-15T16:17:56;13.00;99.90
14099;DHT22;7126;48.458;7.930;2022-11-15T16:22:53;13.00;99.90
14099;DHT22;7126;48.458;7.930;2022-11-15T16:25:19;12.90;99.90
14099;DHT22;7126;48.458;7.930;2022-11-15T16:27:44;12.90;99.90
14099;DHT22;7126;48.458;7.930;2022-11-15T16:30:15;12.90;99.90
14099;DHT22;7126;48.458;7.930;2022-11-15T16:32:41;12.90;99.90
14099;DHT22;7126;48.458;7.930;2022-11-15T16:35:10;12.90;99.90
14099;DHT22;7126;48.458;7.930;2022-11-15T16:37:37;12.90;99.90
14099;DHT22;7126;48.458;7.930;2022-11-15T16:42:49;12.90;99.90
14099;DHT22;7126;48.458;7.930;2022-11-15T16:45:15;12.90;99.90
14099;DHT22;7126;48.458;7.930;2022-11-15T16:47:41;12.90;99.90
14099;DHT22;7126;48.458;7.930;2022-11-15T16:50:21;12.90;99.90
14099;DHT22;7126;48.458;7.930;2022-11-15T16:52:57;12.90;99.90
14099;DHT22;7126;48.458;7.930;2022-11-15T16:55:27;12.90;99.90
14099;DHT22;7126;48.458;7.930;2022-11-15T16:57:54;12.90;99.90
14099;DHT22;7126;48.458;7.930;2022-11-15T17:00:20;12.90;99.90
14099;DHT22;7126;48.458;7.930;2022-11-15T17:02:47;12.90;99.90
14099;DHT22;7126;48.458;7.930;2022-11-15T17:05:15;12.80;99.90
14099;DHT22;7126;48.458;7.930;2022-11-15T17:07:41;12.80;99.90
14099;DHT22;7126;48.458;7.930;2022-11-15T17:10:08;12.80;99.90
14099;DHT22;7126;48.458;7.930;2022-11-15T17:12:35;12.80;99.90
14099;DHT22;7126;48.458;7.930;2022-11-15T17:15:01;12.80;99.90
14099;DHT22;7126;48.458;7.930;2022-11-15T17:17:27;12.80;99.90
14099;DHT22;7126;48.458;7.930;2022-11-15T17:19:52;12.80;99.90
14099;DHT22;7126;48.458;7.930;2022-11-15T17:22:21;12.80;99.90
14099;DHT22;7126;48.458;7.930;2022-11-15T17:24:47;12.70;99.90
14099;DHT22;7126;48.458;7.930;2022-11-15T17:27:13;12.70;99.90
14099;DHT22;7126;48.458;7.930;2022-11-15T17:29:40;12.70;99.90
14099;DHT22;7126;48.458;7.930;2022-11-15T17:32:05;12.60;99.90
14099;DHT22;7126;48.458;7.930;2022-11-15T17:34:31;12.60;99.90
14099;DHT22;7126;48.458;7.930;2022-11-15T17:36:56;12.50;99.90
14099;DHT22;7126;48.458;7.930;2022-11-15T17:39:22;12.50;99.90
14099;DHT22;7126;48.458;7.930;2022-11-15T17:41:49;12.60;99.90
14099;DHT22;7126;48.458;7.930;2022-11-15T17:44:14;12.50;99.90
14099;DHT22;7126;48.458;7.930;2022-11-15T17:46:40;12.50;99.90
14099;DHT22;7126;48.458;7.930;2022-11-15T17:49:06;12.50;99.90
14099;DHT22;7126;48.458;7.930;2022-11-15T17:51:32;12.50;99.90
14099;DHT22;7126;48.458;7.930;2022-11-15T17:53:57;12.50;99.90
14099;DHT22;7126;48.458;7.930;2022-11-15T17:56:25;12.50;99.90
14099;DHT22;7126;48.458;7.930;2022-11-15T18:01:25;12.50;99.90
14099;DHT22;7126;48.458;7.930;2022-11-15T18:03:52;12.50;99.90
14099;DHT22;7126;48.458;7.930;2022-11-15T18:06:19;12.40;99.90
14099;DHT22;7126;48.458;7.930;2022-11-15T18:08:46;12.40;99.90
14099;DHT22;7126;48.458;7.930;2022-11-15T18:11:15;12.40;99.90
14099;DHT22;7126;48.458;7.930;2022-11-15T18:13:43;12.40;99.90
14099;DHT22;7126;48.458;7.930;2022-11-15T18:16:14;12.50;99.90
14099;DHT22;7126;48.458;7.930;2022-11-15T18:18:40;12.40;99.90